createdAt,value
2023-02-28T00:00:19.039Z,49.83
2023-02-28T00:02:45.382Z,50.05
2023-02-28T00:05:12.284Z,49.91
2023-02-28T00:07:38.614Z,49.98
2023-02-28T00:10:05.462Z,49.99
2023-02-28T00:12:31.781Z,50.08
2023-02-28T00:14:58.097Z,49.82
2023-02-28T00:17:24.717Z,49.81
2023-02-28T00:19:51.305Z,50.07
2023-02-28T00:22:21.005Z,50.14
2023-02-28T00:24:47.903Z,49.98
2023-02-28T00:27:14.490Z,49.82
2023-02-28T00:29:40.808Z,49.99
2023-02-28T00:32:07.188Z,50.04
2023-02-28T00:34:38.505Z,49.99
2023-02-28T00:37:05.780Z,49.84
2023-02-28T00:39:33.889Z,49.82
2023-02-28T00:42:00.221Z,49.90
2023-02-28T00:44:26.539Z,49.79
2023-02-28T00:46:54.942Z,49.81
2023-02-28T00:49:24.516Z,49.94
2023-02-28T00:51:50.961Z,49.71
2023-02-28T00:54:19.485Z,49.79
2023-02-28T00:56:47.503Z,49.80
2023-02-28T00:59:14.064Z,49.68
2023-02-28T01:01:40.438Z,49.79
2023-02-28T01:04:06.899Z,49.83
2023-02-28T01:06:33.251Z,49.96
2023-02-28T01:08:59.730Z,49.86
2023-02-28T01:11:26.260Z,49.91
2023-02-28T01:13:53.149Z,49.83
2023-02-28T01:16:19.471Z,49.74
2023-02-28T01:18:45.800Z,49.59
2023-02-28T01:21:13.313Z,49.72
2023-02-28T01:23:39.977Z,49.71
2023-02-28T01:26:10.527Z,49.63
2023-02-28T01:28:39.614Z,49.99
2023-02-28T01:31:06.430Z,49.91
2023-02-28T01:33:32.925Z,49.95
2023-02-28T01:36:19.872Z,49.85
2023-02-28T01:38:46.209Z,49.88
2023-02-28T01:41:15.929Z,49.76
2023-02-28T01:43:45.347Z,49.84
2023-02-28T01:46:12.752Z,49.76
2023-02-28T01:48:39.832Z,49.71
2023-02-28T01:51:11.868Z,49.69
2023-02-28T01:53:39.067Z,49.73
2023-02-28T01:56:05.987Z,49.87
2023-02-28T01:58:32.307Z,49.74
2023-02-28T02:00:58.662Z,49.70
2023-02-28T02:03:26.644Z,49.64
2023-02-28T02:05:52.966Z,49.65
2023-02-28T02:08:26.227Z,50.03
2023-02-28T02:10:54.877Z,49.94
2023-02-28T02:13:35.083Z,49.75
2023-02-28T02:16:24.288Z,49.80
2023-02-28T02:18:54.532Z,49.77
2023-02-28T02:21:35.023Z,49.75
2023-02-28T02:24:12.649Z,49.60
2023-02-28T02:26:52.691Z,49.83
2023-02-28T02:29:31.891Z,49.52
2023-02-28T02:32:06.272Z,49.60
2023-02-28T02:34:40.586Z,49.52
2023-02-28T02:37:12.409Z,49.48
2023-02-28T02:39:53.753Z,49.45
2023-02-28T02:42:25.781Z,49.75
2023-02-28T02:44:56.784Z,49.50
2023-02-28T02:47:25.124Z,49.80
2023-02-28T02:49:52.527Z,49.39
2023-02-28T02:52:19.566Z,49.45
2023-02-28T02:54:46.506Z,49.46
2023-02-28T02:57:14.510Z,49.36
2023-02-28T02:59:41.065Z,49.36
2023-02-28T03:02:08.067Z,49.42
2023-02-28T03:04:37.315Z,49.40
2023-02-28T03:07:03.973Z,49.44
2023-02-28T03:09:30.302Z,49.41
2023-02-28T03:11:56.720Z,49.53
2023-02-28T03:14:23.004Z,49.58
2023-02-28T03:16:52.468Z,49.55
2023-02-28T03:19:21.776Z,49.64
2023-02-28T03:21:56.250Z,49.63
2023-02-28T03:24:28.207Z,49.46
2023-02-28T03:26:56.567Z,49.49
2023-02-28T03:29:46.181Z,49.62
2023-02-28T03:32:25.892Z,49.46
2023-02-28T03:34:55.477Z,49.46
2023-02-28T03:37:22.390Z,49.41
2023-02-28T03:39:50.238Z,49.38
2023-02-28T03:42:18.492Z,49.39
2023-02-28T03:44:46.576Z,49.58
2023-02-28T03:47:22.316Z,49.54
2023-02-28T03:49:55.167Z,49.38
2023-02-28T03:52:21.742Z,49.41
2023-02-28T03:54:51.916Z,49.50
2023-02-28T03:57:23.715Z,49.49
2023-02-28T03:59:51.877Z,49.28
2023-02-28T04:02:19.489Z,49.38
2023-02-28T04:04:49.406Z,49.29
2023-02-28T04:07:16.160Z,49.32
2023-02-28T04:09:42.484Z,49.25
2023-02-28T04:12:08.831Z,49.17
2023-02-28T04:14:35.225Z,49.20
2023-02-28T04:17:01.545Z,49.16
2023-02-28T04:19:27.869Z,48.89
2023-02-28T04:21:54.384Z,48.94
2023-02-28T04:24:21.664Z,48.89
2023-02-28T04:26:48.779Z,48.95
2023-02-28T04:29:16.506Z,48.82
2023-02-28T04:31:42.873Z,48.82
2023-02-28T04:34:09.244Z,48.82
2023-02-28T04:36:35.578Z,48.68
2023-02-28T04:39:01.932Z,48.77
2023-02-28T04:41:31.687Z,48.80
2023-02-28T04:43:58.738Z,48.66
2023-02-28T04:46:25.089Z,48.61
2023-02-28T04:48:51.426Z,48.49
2023-02-28T04:51:18.132Z,48.60
2023-02-28T04:53:44.518Z,48.76
2023-02-28T04:56:14.315Z,48.97
2023-02-28T04:58:40.699Z,48.94
2023-02-28T05:01:13.584Z,49.36
2023-02-28T05:03:41.551Z,49.09
2023-02-28T05:06:08.425Z,49.07
2023-02-28T05:08:34.757Z,48.91
2023-02-28T05:11:04.245Z,48.93
2023-02-28T05:13:30.592Z,48.83
2023-02-28T05:15:56.961Z,48.94
2023-02-28T05:18:23.296Z,48.75
2023-02-28T05:20:49.651Z,48.76
2023-02-28T05:23:23.328Z,48.75
2023-02-28T05:25:49.685Z,48.85
2023-02-28T05:28:16.041Z,48.65
2023-02-28T05:30:42.377Z,48.74
2023-02-28T05:33:11.074Z,48.53
2023-02-28T05:35:38.682Z,48.53
2023-02-28T05:38:05.053Z,48.50
2023-02-28T05:40:31.433Z,48.38
2023-02-28T05:42:57.785Z,48.28
2023-02-28T05:45:24.111Z,48.31
2023-02-28T05:47:50.431Z,48.45
2023-02-28T05:50:16.762Z,48.25
2023-02-28T05:52:43.490Z,48.29
2023-02-28T05:55:09.937Z,48.16
2023-02-28T05:57:36.276Z,48.45
2023-02-28T06:00:02.807Z,48.54
2023-02-28T06:02:39.401Z,48.42
2023-02-28T06:05:05.940Z,48.62
2023-02-28T06:07:32.300Z,48.21
2023-02-28T06:09:58.636Z,48.37
2023-02-28T06:12:24.998Z,48.70
2023-02-28T06:14:51.319Z,48.82
2023-02-28T06:17:17.648Z,48.94
2023-02-28T06:19:44.353Z,49.74
2023-02-28T06:22:10.704Z,50.45
2023-02-28T06:24:37.051Z,50.09
2023-02-28T06:27:05.943Z,50.11
2023-02-28T06:29:33.245Z,49.22
2023-02-28T06:31:59.661Z,49.68
2023-02-28T06:34:26.050Z,49.38
2023-02-28T06:36:52.421Z,49.64
2023-02-28T06:39:18.966Z,49.36
2023-02-28T06:41:54.951Z,49.31
2023-02-28T06:44:22.285Z,49.29
2023-02-28T06:46:48.620Z,49.43
2023-02-28T06:49:15.309Z,49.48
2023-02-28T06:51:42.537Z,49.57
2023-02-28T06:54:11.729Z,49.04
2023-02-28T06:56:38.048Z,48.63
2023-02-28T06:59:04.473Z,48.51
2023-02-28T07:01:33.003Z,48.61
2023-02-28T07:03:59.587Z,48.48
2023-02-28T07:06:25.943Z,38.03
2023-02-28T07:08:53.186Z,40.92
2023-02-28T07:11:19.916Z,41.72
2023-02-28T07:13:47.557Z,42.63
2023-02-28T07:16:14.669Z,43.41
2023-02-28T07:18:41.055Z,42.01
2023-02-28T07:21:08.460Z,40.15
2023-02-28T07:23:34.958Z,38.64
2023-02-28T07:26:01.289Z,37.46
2023-02-28T07:28:27.622Z,36.98
2023-02-28T07:30:53.977Z,36.30
2023-02-28T07:33:20.371Z,36.53
2023-02-28T07:35:46.732Z,37.24
2023-02-28T07:38:14.575Z,37.86
2023-02-28T07:40:40.916Z,38.98
2023-02-28T07:43:07.235Z,39.53
2023-02-28T07:45:35.397Z,39.92
2023-02-28T07:48:01.863Z,40.56
2023-02-28T07:50:31.881Z,40.31
2023-02-28T07:52:58.977Z,39.29
2023-02-28T07:55:25.337Z,39.46
2023-02-28T07:57:51.661Z,38.67
2023-02-28T08:00:18.085Z,38.35
2023-02-28T08:02:44.605Z,38.26
2023-02-28T08:05:11.080Z,37.66
2023-02-28T08:07:37.487Z,38.24
2023-02-28T08:10:03.846Z,38.60
2023-02-28T08:12:30.252Z,39.24
2023-02-28T08:14:56.581Z,39.60
2023-02-28T08:17:22.967Z,39.81
2023-02-28T08:19:49.304Z,40.25
2023-02-28T08:22:15.659Z,40.42
2023-02-28T08:24:42.667Z,40.76
2023-02-28T08:27:08.985Z,41.32
2023-02-28T08:29:35.317Z,41.14
2023-02-28T08:32:02.025Z,41.67
2023-02-28T08:34:28.442Z,41.85
2023-02-28T08:36:55.064Z,40.02
2023-02-28T08:39:21.502Z,40.45
2023-02-28T08:41:51.150Z,40.76
2023-02-28T08:44:19.893Z,41.64
2023-02-28T08:46:46.214Z,42.09
2023-02-28T08:49:12.630Z,41.89
2023-02-28T08:51:39.387Z,42.10
2023-02-28T08:54:05.718Z,42.55
2023-02-28T08:56:32.049Z,42.76
2023-02-28T08:58:58.414Z,42.76
2023-02-28T09:01:28.875Z,42.32
2023-02-28T09:06:26.909Z,29.96
2023-02-28T09:08:53.363Z,34.04
2023-02-28T09:11:20.011Z,33.00
2023-02-28T09:13:46.574Z,35.08
2023-02-28T09:16:13.942Z,36.05
2023-02-28T09:18:40.312Z,37.13
2023-02-28T09:21:10.586Z,37.82
2023-02-28T09:23:39.138Z,38.50
2023-02-28T09:26:05.518Z,38.92
2023-02-28T09:28:31.861Z,39.27
2023-02-28T09:30:59.813Z,39.79
2023-02-28T09:33:26.489Z,40.17
2023-02-28T09:35:58.197Z,40.84
2023-02-28T09:38:24.536Z,40.60
2023-02-28T09:40:51.952Z,40.46
2023-02-28T09:43:57.868Z,41.05
2023-02-28T09:46:27.370Z,40.50
2023-02-28T09:48:53.756Z,39.93
2023-02-28T09:51:31.688Z,40.50
2023-02-28T09:54:01.814Z,41.04
2023-02-28T09:56:32.927Z,41.08
2023-02-28T09:59:03.345Z,41.20
2023-02-28T10:01:38.163Z,41.62
2023-02-28T10:04:05.776Z,42.43
2023-02-28T10:06:37.548Z,41.52
2023-02-28T10:09:21.661Z,41.23
2023-02-28T10:14:21.314Z,41.79
2023-02-28T10:16:54.586Z,41.74
2023-02-28T10:19:22.545Z,42.02
2023-02-28T10:21:50.879Z,42.02
2023-02-28T10:24:21.744Z,41.94
2023-02-28T10:26:48.424Z,42.39
2023-02-28T10:29:14.781Z,42.30
2023-02-28T10:31:41.272Z,42.28
2023-02-28T10:34:08.737Z,42.06
2023-02-28T10:36:36.209Z,42.41
2023-02-28T10:39:02.686Z,41.93
2023-02-28T10:41:30.106Z,42.01
2023-02-28T10:44:12.906Z,42.47
2023-02-28T10:46:39.553Z,42.54
2023-02-28T10:49:06.446Z,42.67
2023-02-28T10:51:37.167Z,42.60
2023-02-28T10:54:03.530Z,42.70
2023-02-28T10:56:30.335Z,42.88
2023-02-28T10:59:09.159Z,42.76
2023-02-28T11:01:39.735Z,42.70
2023-02-28T11:04:19.654Z,42.87
2023-02-28T11:06:46.031Z,42.86
2023-02-28T11:09:26.049Z,42.86
2023-02-28T11:11:53.858Z,42.94
2023-02-28T11:14:24.944Z,43.24
2023-02-28T11:16:51.270Z,43.13
2023-02-28T11:19:25.275Z,42.40
2023-02-28T11:21:58.365Z,42.81
2023-02-28T11:24:28.349Z,42.39
2023-02-28T11:26:54.768Z,42.39
2023-02-28T11:29:27.953Z,42.72
2023-02-28T11:32:09.600Z,42.91
2023-02-28T11:34:36.398Z,42.92
2023-02-28T11:37:05.789Z,42.48
2023-02-28T11:39:32.436Z,42.92
2023-02-28T11:41:58.722Z,42.72
2023-02-28T11:44:24.980Z,42.76
2023-02-28T11:47:02.097Z,42.49
2023-02-28T11:49:36.061Z,42.58
2023-02-28T11:52:04.103Z,43.03
2023-02-28T11:54:37.468Z,42.76
2023-02-28T11:57:27.145Z,43.15
2023-02-28T11:59:57.379Z,42.87
2023-02-28T12:02:30.771Z,42.86
2023-02-28T12:05:15.763Z,42.97
2023-02-28T12:07:50.422Z,42.79
2023-02-28T12:10:26.949Z,43.04
2023-02-28T12:13:06.495Z,43.26
2023-02-28T12:15:45.063Z,28.02
2023-02-28T12:18:18.698Z,40.89
2023-02-28T12:20:47.426Z,38.81
2023-02-28T12:23:20.793Z,38.71
2023-02-28T12:25:51.567Z,39.80
2023-02-28T12:28:18.885Z,39.83
2023-02-28T12:30:49.263Z,40.21
2023-02-28T12:33:15.651Z,40.50
2023-02-28T12:35:44.850Z,40.76
2023-02-28T12:38:18.085Z,40.61
2023-02-28T12:40:45.481Z,40.77
2023-02-28T12:43:11.866Z,41.04
2023-02-28T12:45:41.164Z,40.83
2023-02-28T12:48:08.940Z,41.07
2023-02-28T12:50:35.344Z,40.94
2023-02-28T12:53:03.630Z,40.88
2023-02-28T12:55:38.484Z,40.84
2023-02-28T12:58:23.613Z,41.14
2023-02-28T13:01:02.280Z,41.13
2023-02-28T13:03:37.840Z,41.30
2023-02-28T13:06:18.103Z,41.23
2023-02-28T13:08:51.842Z,41.37
2023-02-28T13:11:29.738Z,41.20
2023-02-28T13:14:03.233Z,41.32
2023-02-28T13:16:29.618Z,41.43
2023-02-28T13:19:08.720Z,41.84
2023-02-28T13:21:36.418Z,41.43
2023-02-28T13:24:04.003Z,41.88
2023-02-28T13:26:39.179Z,42.07
2023-02-28T13:29:11.525Z,41.83
2023-02-28T13:31:56.602Z,41.84
2023-02-28T13:34:22.940Z,41.71
2023-02-28T13:36:49.308Z,41.75
2023-02-28T13:39:35.378Z,42.15
2023-02-28T13:42:22.421Z,42.15
2023-02-28T13:45:07.540Z,42.57
2023-02-28T13:47:33.913Z,41.64
2023-02-28T13:50:23.318Z,42.05
2023-02-28T13:52:54.104Z,42.37
2023-02-28T13:55:23.453Z,42.14
2023-02-28T13:57:50.346Z,42.34
2023-02-28T14:00:35.586Z,42.90
2023-02-28T14:03:06.693Z,42.49
2023-02-28T14:05:33.633Z,42.66
2023-02-28T14:08:00.580Z,42.77
2023-02-28T14:10:31.391Z,42.88
2023-02-28T14:12:59.102Z,42.89
2023-02-28T14:15:29.408Z,43.15
2023-02-28T14:17:55.972Z,40.69
2023-02-28T14:20:22.686Z,39.06
2023-02-28T14:22:55.391Z,40.53
2023-02-28T14:25:32.566Z,40.58
2023-02-28T14:28:13.765Z,39.19
2023-02-28T14:31:01.231Z,38.61
2023-02-28T14:33:27.599Z,40.23
2023-02-28T14:36:17.018Z,39.85
2023-02-28T14:38:44.544Z,41.00
2023-02-28T14:41:16.060Z,41.78
2023-02-28T14:43:49.109Z,41.68
2023-02-28T14:46:15.522Z,42.63
2023-02-28T14:48:42.070Z,42.44
2023-02-28T14:51:14.420Z,42.15
2023-02-28T14:53:40.812Z,42.46
2023-02-28T14:56:07.185Z,42.49
2023-02-28T14:58:33.733Z,42.57
2023-02-28T15:01:01.079Z,42.70
2023-02-28T15:03:30.044Z,42.35
2023-02-28T15:05:57.076Z,42.64
2023-02-28T15:08:23.433Z,42.70
2023-02-28T15:10:53.966Z,42.79
2023-02-28T15:13:20.284Z,42.51
2023-02-28T15:16:05.628Z,42.94
2023-02-28T15:18:32.276Z,42.61
2023-02-28T15:20:59.584Z,42.93
2023-02-28T15:23:25.899Z,43.04
2023-02-28T15:25:52.243Z,42.82
2023-02-28T15:28:19.515Z,42.97
2023-02-28T15:30:56.427Z,43.10
2023-02-28T15:33:23.713Z,43.11
2023-02-28T15:35:50.092Z,43.34
2023-02-28T15:38:22.621Z,43.02
2023-02-28T15:40:58.258Z,43.27
2023-02-28T15:43:28.568Z,42.87
2023-02-28T15:46:08.355Z,43.06
2023-02-28T15:48:45.161Z,43.47
2023-02-28T15:51:24.886Z,43.39
2023-02-28T15:53:52.154Z,43.16
2023-02-28T15:56:23.502Z,43.01
2023-02-28T15:58:49.816Z,43.08
2023-02-28T16:01:30.974Z,43.43
2023-02-28T16:03:58.890Z,43.46
2023-02-28T16:06:34.189Z,43.67
2023-02-28T16:09:00.497Z,43.57
2023-02-28T16:11:27.011Z,43.45
2023-02-28T16:13:53.431Z,43.36
2023-02-28T16:16:20.367Z,43.66
2023-02-28T16:18:46.768Z,43.54
2023-02-28T16:21:13.075Z,43.60
2023-02-28T16:23:39.409Z,43.35
2023-02-28T16:26:05.909Z,43.62
2023-02-28T16:28:33.398Z,43.40
2023-02-28T16:31:03.659Z,43.72
2023-02-28T16:33:30.802Z,43.61
2023-02-28T16:35:57.133Z,44.41
2023-02-28T16:38:25.746Z,44.37
2023-02-28T16:40:52.083Z,41.77
2023-02-28T16:43:19.112Z,38.64
2023-02-28T16:45:45.491Z,37.78
2023-02-28T16:48:12.200Z,38.99
2023-02-28T16:50:38.536Z,41.15
2023-02-28T16:53:04.880Z,41.92
2023-02-28T16:55:31.228Z,42.13
2023-02-28T16:57:58.312Z,42.96
2023-02-28T17:00:24.674Z,42.61
2023-02-28T17:02:51.715Z,43.19
2023-02-28T17:05:19.577Z,43.20
2023-02-28T17:07:45.905Z,43.48
2023-02-28T17:10:12.228Z,43.33
2023-02-28T17:12:38.565Z,43.87
2023-02-28T17:15:05.049Z,43.29
2023-02-28T17:17:32.125Z,43.16
2023-02-28T17:19:58.476Z,43.56
2023-02-28T17:22:26.810Z,43.70
2023-02-28T17:24:56.463Z,44.17
2023-02-28T17:27:22.833Z,44.01
2023-02-28T17:29:49.147Z,44.05
2023-02-28T17:32:18.363Z,43.66
2023-02-28T17:34:46.660Z,44.17
2023-02-28T17:37:13.015Z,43.85
2023-02-28T17:39:39.328Z,43.94
2023-02-28T17:42:05.667Z,44.06
2023-02-28T17:44:32.004Z,44.24
2023-02-28T17:46:58.458Z,43.93
2023-02-28T17:49:24.781Z,44.19
2023-02-28T17:51:51.608Z,44.38
2023-02-28T17:54:19.157Z,34.03
2023-02-28T17:56:45.576Z,34.31
2023-02-28T17:59:11.887Z,38.91
2023-02-28T18:01:38.229Z,38.57
2023-02-28T18:04:04.620Z,38.34
2023-02-28T18:06:31.193Z,38.04
2023-02-28T18:08:57.728Z,38.81
2023-02-28T18:11:24.239Z,39.04
2023-02-28T18:13:51.479Z,40.13
2023-02-28T18:16:18.031Z,41.18
2023-02-28T18:18:44.474Z,41.65
2023-02-28T18:21:11.374Z,41.70
2023-02-28T18:23:37.728Z,41.99
2023-02-28T18:26:07.573Z,41.81
2023-02-28T18:28:34.799Z,41.91
2023-02-28T18:31:07.540Z,41.44
2023-02-28T18:33:33.931Z,41.56
2023-02-28T18:36:00.330Z,41.94
2023-02-28T18:38:26.692Z,42.85
2023-02-28T18:40:53.848Z,42.56
2023-02-28T18:43:20.202Z,42.45
2023-02-28T18:45:46.539Z,42.84
2023-02-28T18:48:14.892Z,43.17
2023-02-28T18:50:42.033Z,42.90
2023-02-28T18:53:08.365Z,42.91
2023-02-28T18:55:34.758Z,42.70
2023-02-28T18:58:01.095Z,42.65
2023-02-28T19:00:27.503Z,42.93
2023-02-28T19:02:53.954Z,43.00
2023-02-28T19:05:20.377Z,42.97
2023-02-28T19:07:46.732Z,43.11
2023-02-28T19:10:13.442Z,43.07
2023-02-28T19:12:39.971Z,43.14
2023-02-28T19:15:06.545Z,43.88
2023-02-28T19:17:33.165Z,43.61
2023-02-28T19:19:59.527Z,43.96
2023-02-28T19:22:26.131Z,44.11
2023-02-28T19:24:52.511Z,43.78
2023-02-28T19:27:19.670Z,43.76
2023-02-28T19:29:49.784Z,43.70
2023-02-28T19:32:16.369Z,43.88
2023-02-28T19:34:42.923Z,43.72
2023-02-28T19:37:09.584Z,43.59
2023-02-28T19:39:41.442Z,43.91
2023-02-28T19:42:11.393Z,43.84
2023-02-28T19:44:37.760Z,43.70
2023-02-28T19:47:04.107Z,43.59
2023-02-28T19:49:30.487Z,43.90
2023-02-28T19:51:56.805Z,43.95
2023-02-28T19:54:23.441Z,43.71
2023-02-28T19:56:49.763Z,43.88
2023-02-28T19:59:21.206Z,43.52
2023-02-28T20:01:48.859Z,43.65
2023-02-28T20:04:15.237Z,43.69
2023-02-28T20:06:41.582Z,43.65
2023-02-28T20:09:07.913Z,43.77
2023-02-28T20:11:34.244Z,43.79
2023-02-28T20:14:05.202Z,43.98
2023-02-28T20:16:32.045Z,43.92
2023-02-28T20:18:58.447Z,43.94
2023-02-28T20:21:24.773Z,43.86
2023-02-28T20:23:51.106Z,43.78
2023-02-28T20:26:20.007Z,43.90
2023-02-28T20:28:46.463Z,43.93
2023-02-28T20:31:16.746Z,43.71
2023-02-28T20:33:45.593Z,44.05
2023-02-28T20:36:13.454Z,44.07
2023-02-28T20:38:39.866Z,44.00
2023-02-28T20:41:06.953Z,44.50
2023-02-28T20:43:33.386Z,44.36
2023-02-28T20:46:03.308Z,44.31
2023-02-28T20:48:30.106Z,44.54
2023-02-28T20:50:56.628Z,44.41
2023-02-28T20:53:24.194Z,44.21
2023-02-28T20:55:56.908Z,44.26
2023-02-28T20:58:23.722Z,44.29
2023-02-28T21:00:50.040Z,44.15
2023-02-28T21:03:24.024Z,44.25
2023-02-28T21:05:50.340Z,44.42
2023-02-28T21:08:16.802Z,44.36
2023-02-28T21:10:43.273Z,44.18
2023-02-28T21:13:09.812Z,44.25
2023-02-28T21:15:39.082Z,44.31
2023-02-28T21:18:05.548Z,44.26
2023-02-28T21:20:31.960Z,44.06
2023-02-28T21:22:58.356Z,44.11
2023-02-28T21:25:25.105Z,44.41
2023-02-28T21:27:55.523Z,38.21
2023-02-28T21:30:22.037Z,37.94
2023-02-28T21:32:48.363Z,41.06
2023-02-28T21:35:14.934Z,41.19
2023-02-28T21:37:41.285Z,41.81
2023-02-28T21:40:08.425Z,42.55
2023-02-28T21:42:34.787Z,42.31
2023-02-28T21:45:01.770Z,43.04
2023-02-28T21:47:28.809Z,43.11
2023-02-28T21:49:55.268Z,43.01
2023-02-28T21:52:21.941Z,43.00
2023-02-28T21:54:48.765Z,42.95
2023-02-28T21:57:15.997Z,43.11
2023-02-28T21:59:42.762Z,43.03
2023-02-28T22:02:10.601Z,43.13
2023-02-28T22:04:36.932Z,43.42
2023-02-28T22:07:03.260Z,43.59
2023-02-28T22:09:29.698Z,43.57
2023-02-28T22:11:56.245Z,43.58
2023-02-28T22:14:22.612Z,43.54
2023-02-28T22:16:52.498Z,43.58
2023-02-28T22:19:20.037Z,43.50
2023-02-28T22:21:47.316Z,43.47
2023-02-28T22:24:14.593Z,43.63
2023-02-28T22:26:41.081Z,43.64
2023-02-28T22:29:07.630Z,43.59
2023-02-28T22:31:34.443Z,43.66
2023-02-28T22:34:01.776Z,43.74
2023-02-28T22:36:28.587Z,43.57
2023-02-28T22:38:55.161Z,43.48
2023-02-28T22:41:22.158Z,43.59
2023-02-28T22:43:55.249Z,43.54
2023-02-28T22:46:21.706Z,43.57
2023-02-28T22:48:48.785Z,43.52
2023-02-28T22:51:15.802Z,43.44
2023-02-28T22:53:42.314Z,43.60
2023-02-28T22:56:09.002Z,43.45
2023-02-28T22:58:35.590Z,43.35
2023-02-28T23:01:11.964Z,43.33
2023-02-28T23:03:38.327Z,43.41
2023-02-28T23:06:11.987Z,43.33
2023-02-28T23:08:38.334Z,43.34
2023-02-28T23:11:04.929Z,43.36
2023-02-28T23:13:31.270Z,43.34
2023-02-28T23:15:57.618Z,43.55
2023-02-28T23:18:23.951Z,43.64
2023-02-28T23:20:50.265Z,43.60
2023-02-28T23:23:16.615Z,43.41
2023-02-28T23:25:42.935Z,43.56
2023-02-28T23:28:10.219Z,43.43
2023-02-28T23:30:38.481Z,43.63
2023-02-28T23:33:05.307Z,43.46
2023-02-28T23:35:32.160Z,43.77
2023-02-28T23:37:59.231Z,43.72
2023-02-28T23:40:25.561Z,43.82
2023-02-28T23:42:52.084Z,43.83
2023-02-28T23:45:18.584Z,43.97
2023-02-28T23:47:45.148Z,43.99
2023-02-28T23:50:11.494Z,44.13
2023-02-28T23:52:37.838Z,44.06
2023-02-28T23:55:04.176Z,44.12
2023-02-28T23:57:30.495Z,44.08
2023-02-28T23:59:56.846Z,44.18
